Time;durP1;ratioP1;P1;durP2;ratioP2;P2;SDS_P1;SDS_P2;PMS_P1;PMS_P2;Temp;Humidity;BMP_temperature;BMP_pressure;BME280_temperature;BME280_humidity;BME280_pressure;Samples;Min_cycle;Max_cycle;Signal;HPM_P1;HPM_P2
2023/06/19 08:10:51;;;;;;;22.70;13.55;;;30.00;99.90;;;;;;4928717;29;20501;-67
2023/06/19 08:13:18;;;;;;;21.83;12.63;;;30.00;99.90;;;;;;4917981;29;20104;-66
2023/06/19 08:15:45;;;;;;;19.35;12.75;;;30.00;99.90;;;;;;4919028;29;20024;-66
2023/06/19 09:16:04;;;;;;;106.47;69.85;;;;;;;;;;4972643;28;20116;-68
2023/06/19 09:18:49;;;;;;;99.15;64.60;;;;;;;;;;4974965;28;20022;-68
2023/06/19 09:21:17;;;;;;;70.90;53.03;;;;;;;;;;4975043;28;20116;-67
2023/06/19 09:23:44;;;;;;;81.95;55.90;;;;;;;;;;4974780;28;20082;-67
2023/06/19 09:26:11;;;;;;;40.42;23.40;;;;;;;;;;4974745;28;20031;-68
2023/06/19 09:28:42;;;;;;;28.65;16.15;;;;;;;;;;4974984;28;20030;-67
2023/06/19 09:31:09;;;;;;;48.15;29.27;;;;;;;;;;4970166;28;20015;-67
2023/06/19 09:33:36;;;;;;;34.85;20.55;;;;;;;;;;4964380;28;20545;-69
2023/06/19 09:36:04;;;;;;;71.13;57.58;;;;;;;;;;4963126;28;20058;-69
2023/06/19 09:38:31;;;;;;;135.52;105.10;;;;;;;;;;4961983;28;20279;-70
2023/06/19 09:41:00;;;;;;;45.30;23.80;;;;;;;;;;4966034;28;20033;-68
2023/06/19 09:43:48;;;;;;;56.00;34.63;;;;;;;;;;4967416;28;20027;-68
2023/06/19 09:46:16;;;;;;;92.90;65.55;;;;;;;;;;4964630;28;20031;-69
2023/06/19 09:48:43;;;;;;;40.13;26.73;;;;;;;;;;4962948;28;20506;-69
2023/06/19 09:51:13;;;;;;;39.90;21.55;;;;;;;;;;4967447;28;20027;-67
2023/06/19 09:53:40;;;;;;;34.13;20.27;;;;;;;;;;4964516;28;20022;-70
2023/06/19 09:56:08;;;;;;;24.58;15.85;;;;;;;;;;4969592;28;20015;-68
2023/06/19 09:58:35;;;;;;;25.02;14.35;;;;;;;;;;4976446;28;20222;-68
2023/06/19 10:01:02;;;;;;;23.40;13.48;;;;;;;;;;4975404;28;20027;-67
2023/06/19 10:03:32;;;;;;;26.92;15.98;;;;;;;;;;4975550;28;20023;-68
2023/06/19 10:06:00;;;;;;;26.13;12.48;;;;;;;;;;4963690;28;20110;-68
2023/06/19 10:08:31;;;;;;;18.27;9.80;;;;;;;;;;4966359;28;20027;-71
2023/06/19 10:10:57;;;;;;;166.03;149.30;;;;;;;;;;4973512;28;20050;-70
2023/06/19 10:13:32;;;;;;;25.10;13.25;;;;;;;;;;4994681;28;20037;-70
2023/06/19 10:15:58;;;;;;;31.75;15.00;;;;;;;;;;4993915;28;20047;-69
2023/06/19 10:18:26;;;;;;;178.55;126.35;;;;;;;;;;4989996;28;20029;-67
2023/06/19 10:20:54;;;;;;;50.22;29.13;;;;;;;;;;4954951;28;20027;-68
2023/06/19 10:23:24;;;;;;;48.00;30.35;;;;;;;;;;4971409;28;20027;-69
2023/06/19 10:25:54;;;;;;;57.75;34.25;;;;;;;;;;4983138;28;20029;-68
2023/06/19 10:28:22;;;;;;;32.85;16.70;;;;;;;;;;4984042;28;20438;-69
2023/06/19 10:30:59;;;;;;;39.38;24.92;;;;;;;;;;4982695;28;20480;-69
2023/06/19 10:33:30;;;;;;;75.32;44.60;;;;;;;;;;4977096;28;20061;-69
2023/06/19 10:35:56;;;;;;;67.10;36.38;;;;;;;;;;4981253;28;20026;-67
2023/06/19 10:38:23;;;;;;;63.78;37.72;;;;;;;;;;4979462;28;20031;-66
2023/06/19 10:40:50;;;;;;;38.47;22.67;;;;;;;;;;4983550;28;20104;-66
2023/06/19 10:43:24;;;;;;;25.13;16.30;;;;;;;;;;4984057;28;20053;-65
2023/06/19 10:45:54;;;;;;;36.92;18.00;;;;;;;;;;4981910;28;20094;-67
2023/06/19 10:48:22;;;;;;;44.33;31.73;;;;;;;;;;4981852;28;20505;-67
2023/06/19 10:50:49;;;;;;;102.78;91.80;;;;;;;;;;4984252;28;20486;-68
2023/06/19 10:53:25;;;;;;;124.47;111.78;;;;;;;;;;4962221;28;20031;-69
2023/06/19 10:55:56;;;;;;;137.90;85.25;;;;;;;;;;4970846;28;20082;-68
2023/06/19 10:58:23;;;;;;;99.22;59.28;;;;;;;;;;4982045;28;20018;-67
2023/06/19 11:00:50;;;;;;;43.58;24.30;;;;;;;;;;4988760;28;20015;-64
2023/06/19 11:03:16;;;;;;;44.10;29.23;;;;;;;;;;4987908;28;20270;-67
2023/06/19 11:05:46;;;;;;;45.83;25.45;;;;;;;;;;4987236;28;20033;-68
2023/06/19 11:08:18;;;;;;;37.80;23.42;;;;;;;;;;4984974;28;20082;-69
2023/06/19 11:10:44;;;;;;;94.00;60.10;;;;;;;;;;4988343;28;20038;-67
2023/06/19 11:13:15;;;;;;;83.82;49.22;;;;;;;;;;4985193;28;20070;-67
2023/06/19 11:15:41;;;;;;;45.40;27.65;;;;;;;;;;4986753;28;20101;-68
2023/06/19 11:18:08;;;;;;;38.47;24.10;;;;;;;;;;4988661;28;20422;-69
2023/06/19 11:20:48;;;;;;;29.48;18.88;;;;;;;;;;4970153;28;20026;-66
2023/06/19 11:23:14;;;;;;;32.63;17.92;;;;;;;;;;4984870;28;20069;-67
2023/06/19 11:25:42;;;;;;;26.08;15.13;;;;;;;;;;4988657;28;20110;-68
2023/06/19 11:28:13;;;;;;;31.20;19.00;;;;;;;;;;4985674;28;20106;-67
2023/06/19 11:30:40;;;;;;;35.80;19.97;;;;;;;;;;4986635;28;20109;-66
2023/06/19 11:33:22;;;;;;;39.63;21.20;;;;;;;;;;4987538;28;20072;-67
2023/06/19 11:35:49;;;;;;;;;;;;;;;;;;4988040;28;20028;-70
2023/06/19 11:38:22;;;;;;;44.67;23.35;;;;;;;;;;4986694;28;20319;-69
2023/06/19 11:40:49;;;;;;;51.28;26.83;;;;;;;;;;4985983;28;20219;-68
2023/06/19 11:43:26;;;;;;;55.67;30.25;;;;;;;;;;4987059;28;20034;-67
2023/06/19 11:45:53;;;;;;;50.38;25.45;;;;;;;;;;4984011;28;20022;-66
2023/06/19 11:48:23;;;;;;;39.90;23.42;;;;;;;;;;4975907;28;20030;-67
2023/06/19 11:50:51;;;;;;;39.28;22.92;;;;;;;;;;4963746;28;20435;-69
2023/06/19 11:53:17;;;;;;;63.63;33.72;;;;;;;;;;4976005;28;20029;-69
2023/06/19 11:55:44;;;;;;;54.30;31.00;;;;;;;;;;4976387;28;20023;-69
2023/06/19 11:58:10;;;;;;;74.47;44.55;;;;;;;;;;4975955;28;20380;-68
2023/06/19 12:00:38;;;;;;;100.80;54.60;;;;;;;;;;4975606;28;20027;-68
2023/06/19 12:03:05;;;;;;;68.63;37.42;;;;;;;;;;4977113;28;20045;-69
2023/06/19 12:05:32;;;;;;;63.75;34.20;;;;;;;;;;4996242;28;20116;-68
2023/06/19 12:08:01;;;;;;;93.88;57.92;;;;;;;;;;4996094;28;20054;-68
2023/06/19 12:10:28;;;;;;;147.80;104.40;;;;;;;;;;4995820;28;20110;-69
2023/06/19 12:12:55;;;;;;;97.55;63.42;;;;;;;;;;4996064;28;20018;-67
2023/06/19 12:15:21;;;;;;;108.13;80.60;;;;;;;;;;4995852;28;20070;-67
2023/06/19 12:17:49;;;;;;;83.70;57.58;;;;;;;;;;4982546;28;20052;-68
2023/06/19 12:20:15;;;;;;;89.68;63.83;;;;;;;;;;4976445;28;20037;-68
2023/06/19 12:22:42;;;;;;;56.97;38.78;;;;;;;;;;4976298;28;20027;-68
2023/06/19 12:25:10;;;;;;;42.05;28.75;;;;;;;;;;4974448;28;20031;-66
2023/06/19 12:27:37;;;;;;;107.72;70.30;;;;;;;;;;4973911;28;20022;-65
2023/06/19 12:30:04;;;;;;;56.40;30.75;;;;;;;;;;4975105;28;20110;-66
2023/06/19 12:32:31;;;;;;;46.80;27.75;;;;;;;;;;4979932;28;20018;-65
2023/06/19 12:34:57;;;;;;;41.30;24.42;;;;;;;;;;4985744;28;20011;-65
2023/06/19 12:37:24;;;;;;;38.10;21.98;;;;;;;;;;4984537;28;20023;-66
2023/06/19 12:39:51;;;;;;;62.80;41.60;;;;;;;;;;4981018;28;20050;-67
2023/06/19 12:42:18;;;;;;;68.13;42.15;;;;;;;;;;4973950;28;20165;-67
2023/06/19 12:44:44;;;;;;;60.13;40.00;;;;;;;;;;4984187;28;20066;-68
2023/06/19 12:47:11;;;;;;;260.13;207.75;;;;;;;;;;4984384;28;20101;-67
2023/06/19 12:49:38;;;;;;;39.38;28.17;;;;;;;;;;4985609;28;20101;-64
2023/06/19 12:52:05;;;;;;;33.90;21.10;;;;;;;;;;4984328;28;20019;-66
2023/06/19 12:54:31;;;;;;;47.63;30.15;;;;;;;;;;4984039;28;20129;-67
2023/06/19 12:56:58;;;;;;;103.88;62.55;;;;;;;;;;4980588;28;20089;-66
2023/06/19 12:59:25;;;;;;;91.30;65.55;;;;;;;;;;4978887;28;20534;-65
2023/06/19 13:01:51;;;;;;;71.28;48.90;;;;;;;;;;4983203;28;20162;-70
2023/06/19 13:04:18;;;;;;;53.88;37.53;;;;;;;;;;4985987;28;20113;-65
2023/06/19 13:06:45;;;;;;;86.80;56.92;;;;;;;;;;4983907;28;20026;-65
2023/06/19 13:09:12;;;;;;;109.75;68.47;;;;;;;;;;4984149;28;20030;-66
2023/06/19 13:11:38;;;;;;;58.22;33.85;;;;;;;;;;4985990;28;20045;-69
2023/06/19 13:14:06;;;;;;;80.30;47.28;;;;;;;;;;4983969;28;20025;-68
2023/06/19 13:16:33;;;;;;;49.55;26.70;;;;;;;;;;4966384;28;20092;-68
2023/06/19 13:18:59;;;;;;;33.00;20.55;;;;;;;;;;4985306;28;20050;-65
2023/06/19 13:21:26;;;;;;;44.92;28.77;;;;;;;;;;4984028;28;20027;-64
2023/06/19 13:23:52;;;;;;;68.72;45.50;;;;;;;;;;4962969;28;20402;-68
2023/06/19 13:26:19;;;;;;;35.92;21.73;;;;;;;;;;4983203;28;20027;-67
2023/06/19 13:28:46;;;;;;;27.98;18.23;;;;;;;;;;4984639;28;20022;-67
2023/06/19 13:31:12;;;;;;;30.40;17.38;;;;;;;;;;4982606;28;20490;-68
2023/06/19 13:33:39;;;;;;;27.15;18.75;;;;;;;;;;4979354;28;20053;-68
2023/06/19 13:36:06;;;;;;;33.50;18.73;;;;;;;;;;4983875;28;20423;-68
2023/06/19 13:38:32;;;;;;;167.90;127.05;;;;;;;;;;4983910;28;20049;-66
2023/06/19 13:40:59;;;;;;;165.57;112.40;;;;;;;;;;4974425;28;20030;-67
2023/06/19 13:43:26;;;;;;;51.72;31.88;;;;;;;;;;4964947;28;20030;-68
2023/06/19 13:45:52;;;;;;;91.72;69.40;;;;;;;;;;4984699;28;20049;-68
2023/06/19 13:48:19;;;;;;;56.60;37.40;;;;;;;;;;4984019;28;20103;-68
2023/06/19 13:50:45;;;;;;;44.72;27.02;;;;;;;;;;4982798;28;20034;-67
2023/06/19 13:53:13;;;;;;;42.88;28.75;;;;;;;;;;4984895;28;20015;-69
2023/06/19 13:55:39;;;;;;;40.67;22.70;;;;;;;;;;4978652;28;20019;-67
2023/06/19 13:58:06;;;;;;;46.35;25.20;;;;;;;;;;4980089;28;20027;-68
2023/06/19 14:00:35;;;;;;;56.67;31.05;;;;;;;;;;4984265;28;20018;-66
2023/06/19 14:03:03;;;;;;;56.50;35.55;;;;;;;;;;4955621;28;20130;-67
2023/06/19 14:05:30;;;;;;;55.90;35.00;;;;;;;;;;4956152;29;20090;-67
2023/06/19 14:07:56;;;;;;;51.55;31.63;;;;;;;;;;4956130;29;20034;-69
2023/06/19 14:10:24;;;;;;;47.97;28.08;;;;;;;;;;4956020;29;20451;-67
2023/06/19 14:12:51;;;;;;;40.10;24.98;;;;;;;;;;4955604;29;20035;-67
2023/06/19 14:15:19;;;;;;;40.95;25.98;;;;;;;;;;4955555;29;20070;-67
2023/06/19 14:17:45;;;;;;;54.03;33.33;;;;;;;;;;4955514;29;20439;-67
2023/06/19 14:20:12;;;;;;;54.97;33.03;;;;;;;;;;4955870;29;20027;-67
2023/06/19 14:22:39;;;;;;;56.70;32.40;;;;;;;;;;4954566;28;20030;-67
2023/06/19 14:25:06;;;;;;;54.90;32.05;;;;;;;;;;4965595;28;20038;-68
2023/06/19 14:27:33;;;;;;;51.42;29.77;;;;;;;;;;4959036;29;20490;-67
2023/06/19 14:30:00;;;;;;;43.92;26.88;;;;;;;;;;4959494;29;20027;-66
2023/06/19 14:32:28;;;;;;;52.55;25.70;;;;;;;;;;4959510;29;20365;-66
2023/06/19 14:34:55;;;;;;;45.38;24.80;;;;;;;;;;4960540;29;20102;-67
2023/06/19 14:37:21;;;;;;;47.13;25.45;;;;;;;;;;4943031;29;20031;-67
2023/06/19 14:39:48;;;;;;;51.88;29.25;;;;;;;;;;4960064;29;20078;-68
2023/06/19 14:42:14;;;;;;;69.18;34.63;;;;;;;;;;4959559;28;20071;-68
2023/06/19 14:44:41;;;;;;;62.17;36.95;;;;;;;;;;4985265;28;20479;-65
2023/06/19 14:47:08;;;;;;;63.10;38.80;;;;;;;;;;4985967;28;20034;-69
2023/06/19 14:49:34;;;;;;;60.92;36.80;;;;;;;;;;4987293;28;20022;-68
2023/06/19 14:52:01;;;;;;;60.80;36.13;;;;;;;;;;4984185;28;20026;-68
2023/06/19 14:54:28;;;;;;;62.10;39.13;;;;;;;;;;4983707;28;20062;-68
2023/06/19 14:56:54;;;;;;;65.50;39.17;;;;;;;;;;4987531;28;20034;-67
2023/06/19 14:59:21;;;;;;;54.03;32.80;;;;;;;;;;4988223;28;20547;-68
2023/06/19 15:01:48;;;;;;;47.83;31.48;;;;;;;;;;4986823;28;20030;-68
2023/06/19 15:04:14;;;;;;;61.50;38.90;;;;;;;;;;4988326;28;20018;-68
2023/06/19 15:06:41;;;;;;;68.45;51.80;;;;;;;;;;4988686;28;20390;-68
2023/06/19 15:09:07;;;;;;;129.63;115.70;;;;;;;;;;4987881;28;20018;-68
2023/06/19 15:11:35;;;;;;;98.85;86.35;;;;;;;;;;4986127;28;20038;-69
2023/06/19 15:14:01;;;;;;;89.10;67.70;;;;;;;;;;4983777;28;20383;-68
2023/06/19 15:16:28;;;;;;;86.70;57.53;;;;;;;;;;4987188;28;20049;-66
2023/06/19 15:18:54;;;;;;;62.58;36.00;;;;;;;;;;4985120;28;20161;-69
2023/06/19 15:21:21;;;;;;;64.63;36.90;;;;;;;;;;4986343;28;20566;-68
2023/06/19 15:23:49;;;;;;;46.17;29.38;;;;;;;;;;4986434;28;20113;-67
2023/06/19 15:26:15;;;;;;;47.05;28.65;;;;;;;;;;4984840;28;20023;-68
2023/06/19 15:28:43;;;;;;;45.85;28.63;;;;;;;;;;4986373;28;20379;-67
2023/06/19 15:31:10;;;;;;;46.38;25.83;;;;;;;;;;4987084;28;20027;-66
2023/06/19 15:33:37;;;;;;;45.28;24.58;;;;;;;;;;4996928;28;20495;-66
2023/06/19 15:36:03;;;;;;;38.60;22.48;;;;;;;;;;4974478;28;20099;-66
2023/06/19 15:38:30;;;;;;;37.97;22.27;;;;;;;;;;4957615;28;20023;-66
2023/06/19 15:40:57;;;;;;;37.53;22.42;;;;;;;;;;4957792;28;20094;-67
2023/06/19 15:43:28;;;;;;;38.75;23.40;;;;;;;;;;4968281;28;20490;-66
2023/06/19 15:45:56;;;;;;;32.67;21.10;;;;;;;;;;4997125;28;20034;-66
2023/06/19 15:48:22;;;;;;;41.55;24.13;;;;;;;;;;4996691;28;20026;-67
2023/06/19 15:50:49;;;;;;;42.65;24.20;;;;;;;;;;4996837;28;20062;-67
2023/06/19 15:53:16;;;;;;;34.97;20.50;;;;;;;;;;4996783;28;20018;-68
2023/06/19 15:55:42;;;;;;;30.85;19.90;;;;;;;;;;4996395;28;20022;-67
2023/06/19 15:58:09;;;;;;;31.58;20.10;;;;;;;;;;4996400;28;20430;-67
2023/06/19 16:00:36;;;;;;;35.60;19.60;;;;;;;;;;4996474;28;20029;-68
2023/06/19 16:03:02;;;;;;;39.47;18.77;;;;;;;;;;4996120;28;20102;-67
2023/06/19 16:05:29;;;;;;;35.05;20.15;;;;;;;;;;4996086;28;20093;-67
2023/06/19 16:07:58;;;;;;;34.97;20.40;;;;;;;;;;4985967;28;20043;-68
2023/06/19 16:10:25;;;;;;;31.27;19.52;;;;;;;;;;4976585;28;20089;-68
2023/06/19 16:12:51;;;;;;;33.45;20.23;;;;;;;;;;4976910;28;20033;-68
2023/06/19 16:15:23;;;;;;;39.50;22.23;;;;;;;;;;4976571;28;20042;-68
2023/06/19 16:17:53;;;;;;;44.42;24.30;;;;;;;;;;4976515;28;20476;-68
2023/06/19 16:20:20;;;;;;;37.63;25.15;;;;;;;;;;4976480;28;20030;-70
2023/06/19 16:22:46;;;;;;;47.47;26.20;;;;;;;;;;4976394;28;20026;-69
2023/06/19 16:25:13;;;;;;;49.00;26.67;;;;;;;;;;4976102;28;20027;-70
2023/06/19 16:27:40;;;;;;;39.22;25.50;;;;;;;;;;4976451;28;20027;-70
2023/06/19 16:30:07;;;;;;;42.83;25.65;;;;;;;;;;4976245;28;20027;-71
2023/06/19 16:32:33;;;;;;;39.70;24.38;;;;;;;;;;4976179;28;20026;-70
2023/06/19 16:35:00;;;;;;;39.63;23.88;;;;;;;;;;4976290;28;20510;-68
2023/06/19 16:37:27;;;;;;;37.45;22.25;;;;;;;;;;4976159;28;20022;-68
2023/06/19 16:39:53;;;;;;;38.45;22.88;;;;;;;;;;4975934;28;20029;-68
2023/06/19 16:42:22;;;;;;;40.45;26.65;;;;;;;;;;4976146;28;20387;-67
2023/06/19 16:44:49;;;;;;;40.60;24.52;;;;;;;;;;4976244;28;20023;-68
2023/06/19 16:47:16;;;;;;;47.72;28.88;;;;;;;;;;4976128;28;20158;-68
2023/06/19 16:49:42;;;;;;;43.75;29.65;;;;;;;;;;4975533;28;20419;-68
2023/06/19 16:52:09;;;;;;;37.95;28.45;;;;;;;;;;4959135;28;20029;-68
2023/06/19 16:54:36;;;;;;;40.10;26.77;;;;;;;;;;4975956;28;20483;-67
2023/06/19 16:57:02;;;;;;;39.58;26.77;;;;;;;;;;4975962;28;20027;-67
2023/06/19 16:59:29;;;;;;;36.72;23.02;;;;;;;;;;4976055;28;20029;-67
2023/06/19 17:01:55;;;;;;;33.38;20.75;;;;;;;;;;4975833;28;20034;-68
2023/06/19 17:04:22;;;;;;;37.10;22.80;;;;;;;;;;4975964;28;20027;-67
2023/06/19 17:06:48;;;;;;;;;;;;;;;;;;4976397;28;19910;-67
2023/06/19 17:09:15;;;;;;;39.75;23.33;;;;;;;;;;4975768;28;19910;-68
2023/06/19 17:11:41;;;;;;;38.30;23.27;;;;;;;;;;4975753;28;20031;-68
2023/06/19 17:14:08;;;;;;;37.92;23.13;;;;;;;;;;4975852;28;20030;-68
2023/06/19 17:16:35;;;;;;;40.90;23.88;;;;;;;;;;4975252;28;20051;-67
2023/06/19 17:19:03;;;;;;;42.45;24.02;;;;;;;;;;4975813;28;20487;-68
2023/06/19 17:21:30;;;;;;;35.40;23.50;;;;;;;;;;4975719;28;20034;-68
2023/06/19 17:23:56;;;;;;;37.90;23.13;;;;;;;;;;4975357;28;20037;-67
2023/06/19 17:26:23;;;;;;;39.70;24.02;;;;;;;;;;4975519;28;20035;-68
2023/06/19 17:28:50;;;;;;;42.55;24.92;;;;;;;;;;4975632;28;20027;-68
2023/06/19 17:31:16;;;;;;;42.15;24.70;;;;;;;;;;4975269;28;20034;-70
2023/06/19 17:33:43;;;;;;;42.00;25.52;;;;;;;;;;4975448;28;20031;-68
2023/06/19 17:36:09;;;;;;;44.85;24.67;;;;;;;;;;4975479;28;20029;-68
2023/06/19 17:38:36;;;;;;;52.55;24.90;;;;;;;;;;4975339;28;20033;-68
2023/06/19 17:41:04;;;;;;;42.88;23.42;;;;;;;;;;4975469;28;20026;-68
2023/06/19 17:43:30;;;;;;;39.22;22.73;;;;;;;;;;4975179;28;20023;-68
2023/06/19 17:45:57;;;;;;;32.20;20.75;;;;;;;;;;4975129;28;20042;-68
2023/06/19 17:48:23;;;;;;;37.35;22.13;;;;;;;;;;4975021;28;20096;-69
2023/06/19 17:50:50;;;;;;;50.38;24.35;;;;;;;;;;4975122;28;20089;-68
2023/06/19 17:53:17;;;;;;;41.15;24.13;;;;;;;;;;4975123;28;20057;-68
2023/06/19 17:55:43;;;;;;;43.05;24.17;;;;;;;;;;4974883;28;20030;-68
2023/06/19 17:58:10;;;;;;;41.55;23.50;;;;;;;;;;4975191;28;20019;-68
2023/06/19 18:00:37;;;;;;;38.17;22.55;;;;;;;;;;4974141;28;20031;-69
2023/06/19 18:03:04;;;;;;;37.30;20.30;;;;;;;;;;4974724;28;20126;-69
2023/06/19 18:05:30;;;;;;;39.00;21.35;;;;;;;;;;4974949;28;20034;-69
2023/06/19 18:07:57;;;;;;;39.30;21.02;;;;;;;;;;4975219;28;20031;-69
2023/06/19 18:10:24;;;;;;;35.63;20.23;;;;;;;;;;4974742;28;20031;-69
2023/06/19 18:12:50;;;;;;;38.42;20.75;;;;;;;;;;4975177;28;20026;-68
2023/06/19 18:15:17;;;;;;;38.97;19.70;;;;;;;;;;4974903;28;20047;-69
2023/06/19 18:17:44;;;;;;;41.03;20.80;;;;;;;;;;4974748;28;20043;-69
2023/06/19 18:20:11;;;;;;;31.20;19.60;;;;;;;;;;4975023;28;20037;-67
2023/06/19 18:22:38;;;;;;;33.63;19.98;;;;;;;;;;4974896;28;20084;-69
2023/06/19 18:25:05;;;;;;;33.58;19.90;;;;;;;;;;4974744;28;20483;-68
2023/06/19 18:27:32;;;;;;;42.40;20.45;;;;;;;;;;4974937;28;20042;-69
2023/06/19 18:29:58;;;;;;;38.63;22.63;;;;;;;;;;4974816;28;20027;-68
2023/06/19 18:32:25;;;;;;;42.53;22.05;;;;;;;;;;4974212;28;20019;-68
2023/06/19 18:34:53;;;;;;;40.63;25.40;;;;;;;;;;4974342;28;20027;-68
2023/06/19 18:37:20;;;;;;;44.88;25.15;;;;;;;;;;4974347;28;20045;-68
2023/06/19 18:39:47;;;;;;;57.03;31.48;;;;;;;;;;4974577;28;20579;-69
2023/06/19 18:42:13;;;;;;;61.25;36.40;;;;;;;;;;4977066;23;20052;-68
2023/06/19 18:44:40;;;;;;;65.32;40.55;;;;;;;;;;4955109;29;20031;-68
2023/06/19 18:47:07;;;;;;;58.22;40.33;;;;;;;;;;4955059;29;20031;-68
2023/06/19 18:49:33;;;;;;;55.53;38.80;;;;;;;;;;4955189;29;20023;-67
2023/06/19 18:52:00;;;;;;;56.58;38.50;;;;;;;;;;4955235;29;20542;-68
2023/06/19 18:54:27;;;;;;;66.90;39.78;;;;;;;;;;4955021;29;20102;-68
2023/06/19 18:56:53;;;;;;;63.17;39.30;;;;;;;;;;4955144;28;20027;-68
2023/06/19 18:59:21;;;;;;;58.50;41.63;;;;;;;;;;4955190;29;20028;-69
2023/06/19 19:01:47;;;;;;;68.03;47.72;;;;;;;;;;4955265;29;20031;-70
2023/06/19 19:04:14;;;;;;;67.45;46.05;;;;;;;;;;4955134;29;20053;-69
2023/06/19 19:06:41;;;;;;;66.32;46.70;;;;;;;;;;4955097;29;20031;-69
2023/06/19 19:09:08;;;;;;;75.35;47.03;;;;;;;;;;4955199;29;20024;-71
2023/06/19 19:11:35;;;;;;;84.57;58.58;;;;;;;;;;4955240;28;20093;-69
2023/06/19 19:14:02;;;;;;;70.93;50.13;;;;;;;;;;4958723;29;20472;-70
2023/06/19 19:16:28;;;;;;;111.45;77.93;;;;;;;;;;4958582;29;20050;-70
2023/06/19 19:18:55;;;;;;;106.60;73.50;;;;;;;;;;4958284;29;20389;-71
2023/06/19 19:21:21;;;;;;;90.65;66.38;;;;;;;;;;4958573;29;20038;-70
2023/06/19 19:23:48;;;;;;;81.80;58.42;;;;;;;;;;4941170;29;20035;-69
2023/06/19 19:26:15;;;;;;;68.45;47.78;;;;;;;;;;4958584;29;20532;-70
2023/06/19 19:28:41;;;;;;;60.13;43.50;;;;;;;;;;4958302;29;20066;-70
2023/06/19 19:31:09;;;;;;;73.50;53.33;;;;;;;;;;4958319;29;20034;-70
2023/06/19 19:33:36;;;;;;;60.08;42.97;;;;;;;;;;4958167;29;20468;-70
2023/06/19 19:36:04;;;;;;;82.70;54.55;;;;;;;;;;4958412;29;20027;-69
2023/06/19 19:38:31;;;;;;;93.32;67.47;;;;;;;;;;4958270;29;20019;-70
2023/06/19 19:40:57;;;;;;;61.78;41.65;;;;;;;;;;4958193;29;20051;-71
2023/06/19 19:43:24;;;;;;;56.35;39.25;;;;;;;;;;4958271;29;20024;-69
2023/06/19 19:45:52;;;;;;;48.28;34.65;;;;;;;;;;4958666;29;20019;-71
2023/06/19 19:48:20;;;;;;;53.22;34.38;;;;;;;;;;4958308;29;20454;-70
2023/06/19 19:50:46;;;;;;;53.33;34.28;;;;;;;;;;4958398;29;20106;-69
2023/06/19 19:53:16;;;;;;;55.22;36.20;;;;;;;;;;4958343;29;20106;-69
2023/06/19 19:55:46;;;;;;;58.38;36.90;;;;;;;;;;4957896;28;20027;-69
2023/06/19 19:58:13;;;;;;;51.55;36.22;;;;;;;;;;4957997;29;20078;-69
2023/06/19 20:00:45;;;;;;;68.47;44.78;;;;;;;;;;4958102;29;20058;-69
2023/06/19 20:03:12;;;;;;;64.20;41.25;;;;;;;;;;4957912;29;20071;-69
2023/06/19 20:05:39;;;;;;;56.13;37.75;;;;;;;;;;4958194;29;20035;-69
2023/06/19 20:08:05;;;;;;;58.20;39.03;;;;;;;;;;4957661;29;20548;-70
2023/06/19 20:10:32;;;;;;;59.15;39.80;;;;;;;;;;4957931;29;20031;-69
2023/06/19 20:12:59;;;;;;;60.83;39.30;;;;;;;;;;4957887;29;20061;-69
2023/06/19 20:15:25;;;;;;;60.58;39.00;;;;;;;;;;4958023;29;20094;-68
2023/06/19 20:17:52;;;;;;;57.80;36.50;;;;;;;;;;4957942;29;20034;-70
2023/06/19 20:20:18;;;;;;;57.30;35.35;;;;;;;;;;4957842;29;20078;-69
2023/06/19 20:22:45;;;;;;;58.28;35.40;;;;;;;;;;4957709;28;20106;-69
2023/06/19 20:25:12;;;;;;;63.65;35.13;;;;;;;;;;4956791;29;20158;-71
2023/06/19 20:27:38;;;;;;;53.00;34.50;;;;;;;;;;4957771;29;20028;-70
2023/06/19 20:30:05;;;;;;;73.32;46.88;;;;;;;;;;4957796;29;20050;-71
2023/06/19 20:32:32;;;;;;;75.07;51.42;;;;;;;;;;4957359;29;20472;-69
2023/06/19 20:34:59;;;;;;;83.30;62.65;;;;;;;;;;4957370;29;20019;-69
2023/06/19 20:37:25;;;;;;;88.70;63.22;;;;;;;;;;4957318;29;20343;-69
2023/06/19 20:39:52;;;;;;;75.28;57.05;;;;;;;;;;4957083;29;20074;-69
2023/06/19 20:42:18;;;;;;;76.25;53.70;;;;;;;;;;4957002;29;20118;-69
2023/06/19 20:44:46;;;;;;;67.25;46.45;;;;;;;;;;4956774;29;20106;-69
2023/06/19 20:47:13;;;;;;;62.33;41.97;;;;;;;;;;4956523;29;20428;-69
2023/06/19 20:49:39;;;;;;;56.92;41.15;;;;;;;;;;4956674;29;20083;-69
2023/06/19 20:52:06;;;;;;;61.15;36.92;;;;;;;;;;4956475;29;20027;-69
2023/06/19 20:54:33;;;;;;;53.83;33.53;;;;;;;;;;4956277;29;20070;-67
2023/06/19 20:56:59;;;;;;;48.58;32.10;;;;;;;;;;4956500;28;20027;-67
2023/06/19 20:59:26;;;;;;;56.42;34.40;;;;;;;;;;4956428;29;20027;-67
2023/06/19 21:01:56;;;;;;;52.22;32.28;;;;;;;;;;4953329;29;20027;-68
2023/06/19 21:04:24;;;;;;;52.15;30.63;;;;;;;;;;4953095;29;20106;-68
2023/06/19 21:06:50;;;;;;;47.97;31.05;;;;;;;;;;4956455;29;20024;-68
2023/06/19 21:09:18;;;;;;;57.67;35.10;;;;;;;;;;4956173;29;20038;-69
2023/06/19 21:11:45;;;;;;;58.05;35.03;;;;;;;;;;4956262;29;20027;-68
2023/06/19 21:14:11;;;;;;;66.00;36.83;;;;;;;;;;4956110;29;20023;-68
2023/06/19 21:16:38;;;;;;;73.25;41.20;;;;;;;;;;4956039;29;20524;-68
2023/06/19 21:19:05;;;;;;;72.05;38.38;;;;;;;;;;4956387;29;20487;-68
2023/06/19 21:21:31;;;;;;;82.43;40.05;;;;;;;;;;4956115;29;20360;-68
2023/06/19 21:23:58;;;;;;;72.85;38.85;;;;;;;;;;4955894;29;20367;-68
2023/06/19 21:26:25;;;;;;;75.10;38.50;;;;;;;;;;4951654;29;20051;-69
2023/06/19 21:28:52;;;;;;;61.50;37.30;;;;;;;;;;4949633;29;20023;-69
2023/06/19 21:31:18;;;;;;;64.25;35.42;;;;;;;;;;4940744;29;20120;-69
2023/06/19 21:33:45;;;;;;;72.65;37.10;;;;;;;;;;4955938;29;20544;-68
2023/06/19 21:36:12;;;;;;;69.70;36.70;;;;;;;;;;4955617;28;20023;-69
2023/06/19 21:38:38;;;;;;;60.45;33.33;;;;;;;;;;4955464;29;20161;-68
2023/06/19 21:41:05;;;;;;;56.20;33.53;;;;;;;;;;4936501;29;20051;-69
2023/06/19 21:43:31;;;;;;;55.70;32.65;;;;;;;;;;4945670;29;20207;-68
2023/06/19 21:45:58;;;;;;;67.47;33.72;;;;;;;;;;4955699;29;20473;-69
2023/06/19 21:48:28;;;;;;;55.42;32.88;;;;;;;;;;4955714;29;20035;-69
2023/06/19 21:50:55;;;;;;;54.45;30.55;;;;;;;;;;4955349;29;20039;-68
2023/06/19 21:53:22;;;;;;;55.90;32.83;;;;;;;;;;4955433;29;20103;-69
2023/06/19 21:55:48;;;;;;;55.83;30.35;;;;;;;;;;4955549;28;20098;-68
2023/06/19 21:58:15;;;;;;;53.80;32.05;;;;;;;;;;4955294;29;20083;-68
2023/06/19 22:00:42;;;;;;;53.45;30.85;;;;;;;;;;4955397;29;20027;-69
2023/06/19 22:03:08;;;;;;;55.55;33.15;;;;;;;;;;4955857;29;20107;-68
2023/06/19 22:05:35;;;;;;;58.78;32.80;;;;;;;;;;4954387;29;20069;-68
2023/06/19 22:08:01;;;;;;;60.00;31.77;;;;;;;;;;4944830;29;20078;-68
2023/06/19 22:10:28;;;;;;;48.72;28.73;;;;;;;;;;4948964;29;20032;-68
2023/06/19 22:12:56;;;;;;;48.80;31.13;;;;;;;;;;4937914;29;20071;-68
2023/06/19 22:15:22;;;;;;;48.88;32.63;;;;;;;;;;4943343;29;20480;-68
2023/06/19 22:17:49;;;;;;;58.15;32.85;;;;;;;;;;4937750;29;20031;-68
2023/06/19 22:20:17;;;;;;;59.92;34.67;;;;;;;;;;4936175;29;20031;-67
2023/06/19 22:22:45;;;;;;;54.83;35.15;;;;;;;;;;4936030;29;20040;-67
2023/06/19 22:25:11;;;;;;;61.83;34.53;;;;;;;;;;4935923;29;20038;-68
2023/06/19 22:27:43;;;;;;;56.80;35.63;;;;;;;;;;4935896;29;20034;-67
2023/06/19 22:30:09;;;;;;;69.20;34.42;;;;;;;;;;4935827;29;20049;-68
2023/06/19 22:32:36;;;;;;;63.45;37.83;;;;;;;;;;4935977;29;20422;-68
2023/06/19 22:35:03;;;;;;;65.68;37.22;;;;;;;;;;4936000;29;20071;-67
2023/06/19 22:37:29;;;;;;;57.35;35.28;;;;;;;;;;4935903;29;20020;-68
2023/06/19 22:39:56;;;;;;;64.40;40.38;;;;;;;;;;4939591;29;20032;-68
2023/06/19 22:42:22;;;;;;;64.28;44.65;;;;;;;;;;4942243;29;20102;-68
2023/06/19 22:44:49;;;;;;;64.35;41.22;;;;;;;;;;4935948;29;20070;-67
2023/06/19 22:47:16;;;;;;;56.65;36.58;;;;;;;;;;4937077;29;20485;-68
2023/06/19 22:49:43;;;;;;;52.88;35.13;;;;;;;;;;4939799;29;20056;-68
2023/06/19 22:52:10;;;;;;;54.28;34.40;;;;;;;;;;4939458;29;20038;-67
2023/06/19 22:54:36;;;;;;;51.17;32.83;;;;;;;;;;4939393;29;20015;-67
2023/06/19 22:57:03;;;;;;;51.88;33.08;;;;;;;;;;4939469;29;20020;-68
2023/06/19 22:59:30;;;;;;;69.03;47.20;;;;;;;;;;4939481;29;20095;-68
2023/06/19 23:01:56;;;;;;;74.25;43.35;;;;;;;;;;4939178;29;20479;-68
2023/06/19 23:04:23;;;;;;;62.95;39.88;;;;;;;;;;4939377;29;20425;-68
2023/06/19 23:06:52;;;;;;;57.78;36.80;;;;;;;;;;4939366;29;20032;-68
2023/06/19 23:09:19;;;;;;;59.55;38.53;;;;;;;;;;4939052;29;20050;-69
2023/06/19 23:11:48;;;;;;;72.53;39.63;;;;;;;;;;4939196;29;20437;-69
2023/06/19 23:14:15;;;;;;;77.47;45.40;;;;;;;;;;4939090;29;20028;-69
2023/06/19 23:16:41;;;;;;;67.47;41.63;;;;;;;;;;4939018;29;20031;-69
2023/06/19 23:19:08;;;;;;;62.08;42.00;;;;;;;;;;4939288;29;20362;-70
2023/06/19 23:21:35;;;;;;;69.85;45.65;;;;;;;;;;4939005;29;20074;-70
2023/06/19 23:24:02;;;;;;;72.07;42.58;;;;;;;;;;4939188;29;20079;-68